Time;durP1;ratioP1;P1;durP2;ratioP2;P2;SDS_P1;SDS_P2;PMS_P1;PMS_P2;Temp;Humidity;BMP_temperature;BMP_pressure;BME280_temperature;BME280_humidity;BME280_pressure;Samples;Min_cycle;Max_cycle;Signal;HPM_P1;HPM_P2
2021/05/04 00:00:41;;;;;;;11.00;6.57;;;9.40;99.90;;;9.16;97.79;99847.22;5044517;28;20187;-60
2021/05/04 00:03:07;;;;;;;8.82;5.40;;;9.30;99.90;;;9.15;97.48;99847.44;5077768;28;20052;-59
2021/05/04 00:05:33;;;;;;;7.82;5.50;;;9.30;99.90;;;9.15;98.41;99840.13;5077685;28;20035;-60
2021/05/04 00:07:59;;;;;;;7.88;5.57;;;9.20;99.90;;;9.14;98.55;99824.09;5074373;28;20435;-60
2021/05/04 00:10:24;;;;;;;6.72;4.57;;;9.10;99.90;;;9.06;99.08;99820.53;5057765;28;20043;-60
2021/05/04 00:12:50;;;;;;;9.82;5.35;;;9.10;99.90;;;8.95;99.24;99807.66;5057764;28;20025;-61
2021/05/04 00:15:17;;;;;;;6.43;5.05;;;9.10;99.90;;;9.04;99.99;99800.91;5074463;28;20115;-60
2021/05/04 00:17:43;;;;;;;7.80;5.10;;;9.10;99.90;;;8.96;100.00;99787.59;5057854;28;20032;-61
2021/05/04 00:20:10;;;;;;;6.07;4.75;;;9.00;99.90;;;8.93;100.00;99771.75;5074916;28;20417;-59
2021/05/04 00:22:35;;;;;;;7.22;5.45;;;9.00;99.90;;;8.89;100.00;99756.13;5091114;28;20054;-59
2021/05/04 00:25:01;;;;;;;6.68;4.57;;;9.00;99.90;;;8.78;100.00;99749.50;5057571;28;20033;-60
2021/05/04 00:27:27;;;;;;;8.20;4.82;;;8.90;99.90;;;8.79;100.00;99753.03;5075492;28;20028;-59
2021/05/04 00:29:53;;;;;;;6.10;5.13;;;8.90;99.90;;;8.76;100.00;99737.19;5074164;28;20107;-59
2021/05/04 00:32:19;;;;;;;6.78;5.07;;;8.90;99.90;;;8.81;100.00;99730.06;5057453;28;20071;-60
2021/05/04 00:34:44;;;;;;;7.40;5.28;;;8.90;99.90;;;8.78;100.00;99719.66;5073804;28;20135;-59
2021/05/04 00:37:10;;;;;;;6.90;5.55;;;8.80;99.90;;;8.73;100.00;99712.16;5073918;28;20039;-61
2021/05/04 00:39:37;;;;;;;12.43;4.53;;;8.80;99.90;;;8.74;100.00;99691.28;5075271;28;20060;-64
2021/05/04 00:42:05;;;;;;;7.63;5.22;;;8.80;99.90;;;8.68;100.00;99686.72;5057329;28;20024;-59
2021/05/04 00:44:32;;;;;;;6.72;4.82;;;8.80;99.90;;;8.64;100.00;99677.34;5073952;28;20040;-65
2021/05/04 00:46:58;;;;;;;7.88;5.32;;;8.80;99.90;;;8.70;100.00;99673.75;5073915;28;20490;-66
2021/05/04 00:49:23;;;;;;;9.40;5.13;;;8.70;99.90;;;8.68;100.00;99665.03;5073799;28;20131;-66
2021/05/04 00:51:52;;;;;;;6.57;5.30;;;8.70;99.90;;;8.68;100.00;99659.59;5057303;28;20044;-66
2021/05/04 00:54:18;;;;;;;7.03;4.82;;;8.70;99.90;;;8.59;100.00;99637.31;5073825;28;20119;-65
2021/05/04 00:56:45;;;;;;;8.80;4.85;;;8.70;99.90;;;8.56;100.00;99634.22;5057615;28;20120;-66
2021/05/04 00:59:11;;;;;;;7.20;5.78;;;8.70;99.90;;;8.54;100.00;99630.88;5073736;28;20041;-66
2021/05/04 01:01:38;;;;;;;5.60;4.68;;;8.70;99.90;;;8.53;100.00;99624.63;5073430;28;20462;-62
2021/05/04 01:04:06;;;;;;;7.32;4.57;;;8.70;99.90;;;8.53;100.00;99612.94;5073512;28;20124;-62
2021/05/04 01:06:32;;;;;;;8.48;5.18;;;8.60;99.90;;;8.64;100.00;99614.97;5074771;28;20029;-62
2021/05/04 01:08:58;;;;;;;6.38;4.78;;;8.70;99.90;;;8.70;100.00;99619.50;5073499;28;20041;-63
2021/05/04 01:11:24;;;;;;;14.07;5.57;;;8.70;99.90;;;8.66;100.00;99593.88;5073606;28;20036;-63
2021/05/04 01:13:56;;;;;;;6.90;4.28;;;8.70;99.90;;;8.68;100.00;99587.19;5056627;28;20433;-63
2021/05/04 01:16:22;;;;;;;7.38;4.90;;;8.70;99.90;;;8.66;100.00;99569.47;5056646;28;20032;-59
2021/05/04 01:18:48;;;;;;;8.95;4.90;;;8.80;99.90;;;8.68;100.00;99578.22;5055403;28;20025;-61
2021/05/04 01:21:14;;;;;;;6.10;4.47;;;8.80;99.90;;;8.68;100.00;99559.25;5056406;28;20040;-60
2021/05/04 01:23:40;;;;;;;5.35;3.90;;;8.80;99.90;;;8.63;100.00;99542.78;5056466;28;20033;-61
2021/05/04 01:26:06;;;;;;;5.97;3.80;;;8.80;99.90;;;8.65;100.00;99556.97;5072998;28;20036;-60
2021/05/04 01:28:32;;;;;;;5.43;4.00;;;8.70;99.90;;;8.60;100.00;99526.94;5074212;28;20047;-62
2021/05/04 01:30:58;;;;;;;6.68;4.20;;;8.70;99.90;;;8.64;100.00;99522.75;5073139;28;20509;-60
2021/05/04 01:33:23;;;;;;;4.03;2.85;;;8.80;99.90;;;8.61;100.00;99528.59;5056338;28;20083;-61
2021/05/04 01:35:49;;;;;;;5.78;3.08;;;8.80;99.90;;;8.63;100.00;99521.06;5072878;28;20082;-59
2021/05/04 01:38:16;;;;;;;8.20;3.22;;;8.80;99.90;;;8.65;100.00;99513.56;5039590;28;20040;-59
2021/05/04 01:40:42;;;;;;;3.25;2.88;;;8.80;99.90;;;8.73;100.00;99503.25;5072893;28;20032;-59
2021/05/04 01:43:08;;;;;;;5.47;2.38;;;8.80;99.90;;;8.72;100.00;99492.63;5073869;28;20029;-62
2021/05/04 01:45:34;;;;;;;3.92;2.13;;;8.80;99.90;;;8.71;100.00;99496.38;5072768;28;20513;-59
2021/05/04 01:48:00;;;;;;;4.70;2.50;;;8.80;99.90;;;8.74;100.00;99485.09;5072550;28;20033;-60
2021/05/04 01:50:26;;;;;;;6.55;2.28;;;8.90;99.90;;;8.81;100.00;99483.13;5056618;28;20070;-59
2021/05/04 01:52:52;;;;;;;2.88;2.20;;;8.90;99.90;;;8.79;100.00;99479.00;5073757;28;20028;-60
2021/05/04 01:55:18;;;;;;;3.40;1.95;;;8.90;99.90;;;8.75;100.00;99470.47;5055823;28;20039;-59
2021/05/04 01:57:44;;;;;;;2.25;2.05;;;8.80;99.90;;;8.80;100.00;99453.53;5072539;28;20040;-59
2021/05/04 02:00:10;;;;;;;5.53;2.20;;;8.90;99.90;;;8.73;100.00;99445.44;5055543;28;20138;-59
2021/05/04 02:02:36;;;;;;;6.65;1.60;;;8.90;99.90;;;8.74;100.00;99441.69;5073625;28;20021;-60
2021/05/04 02:05:05;;;;;;;4.15;2.35;;;8.90;99.90;;;8.82;100.00;99449.53;5039122;28;20461;-60
2021/05/04 02:07:30;;;;;;;4.68;2.40;;;8.80;99.90;;;8.76;100.00;99461.28;5072287;28;20495;-60
2021/05/04 02:09:56;;;;;;;3.22;1.75;;;8.90;99.90;;;8.75;100.00;99456.91;5055678;28;20048;-60
2021/05/04 02:12:23;;;;;;;2.45;1.75;;;8.90;99.90;;;8.72;100.00;99428.34;5073685;28;20115;-60
2021/05/04 02:14:54;;;;;;;3.22;2.15;;;8.90;99.90;;;8.66;100.00;99433.84;5055372;28;20041;-60
2021/05/04 02:17:20;;;;;;;4.43;2.03;;;8.80;99.90;;;8.61;100.00;99426.34;5072180;28;20025;-60
2021/05/04 02:19:46;;;;;;;5.22;1.73;;;8.80;99.90;;;8.53;100.00;99414.97;5072044;28;20031;-60
2021/05/04 02:22:12;;;;;;;1.63;1.52;;;8.70;99.90;;;8.59;100.00;99405.94;5072004;28;20383;-60
2021/05/04 02:24:37;;;;;;;7.45;2.22;;;8.70;99.90;;;8.60;100.00;99410.31;5071838;28;20507;-61
2021/05/04 02:27:04;;;;;;;2.60;1.60;;;8.70;99.90;;;8.67;100.00;99392.09;5072023;28;20158;-60
2021/05/04 02:29:30;;;;;;;3.78;1.92;;;8.70;99.90;;;8.59;100.00;99384.22;5072805;28;20041;-60
2021/05/04 02:31:56;;;;;;;3.85;2.33;;;8.70;99.90;;;8.55;100.00;99369.47;5073372;28;20063;-60
2021/05/04 02:34:22;;;;;;;3.40;1.95;;;8.70;99.90;;;8.54;100.00;99365.94;5072130;28;20037;-59
2021/05/04 02:36:47;;;;;;;4.15;2.65;;;8.60;99.90;;;8.54;100.00;99365.94;5071842;28;20058;-60
2021/05/04 02:39:13;;;;;;;3.15;1.73;;;8.60;99.90;;;8.59;100.00;99354.41;5072339;28;20424;-60
2021/05/04 02:41:39;;;;;;;4.90;1.85;;;8.60;99.90;;;8.61;100.00;99331.44;5072108;28;20115;-60
2021/05/04 02:44:06;;;;;;;2.72;1.90;;;8.60;99.90;;;8.64;100.00;99343.72;5071774;28;20043;-60
2021/05/04 02:46:33;;;;;;;3.22;1.80;;;8.60;99.90;;;8.64;100.00;99335.59;5071905;28;20483;-60
2021/05/04 02:48:58;;;;;;;4.70;2.17;;;8.70;99.90;;;8.61;100.00;99346.88;5071676;28;20025;-59
2021/05/04 02:51:25;;;;;;;1.75;1.65;;;8.70;99.90;;;8.60;100.00;99334.38;5071816;28;20086;-60
2021/05/04 02:53:52;;;;;;;5.18;1.70;;;8.70;99.90;;;8.60;100.00;99315.38;5071632;28;20036;-60
2021/05/04 02:56:18;;;;;;;2.10;1.92;;;8.70;99.90;;;8.66;100.00;99312.59;5055287;28;20430;-60
2021/05/04 02:58:44;;;;;;;2.33;1.60;;;8.70;99.90;;;8.62;100.00;99302.44;5071734;28;20037;-59
2021/05/04 03:01:10;;;;;;;3.03;1.70;;;8.70;99.90;;;8.66;100.00;99304.47;5071571;28;20140;-60
2021/05/04 03:03:37;;;;;;;2.90;2.63;;;8.70;99.90;;;8.67;100.00;99292.56;5054995;28;20098;-60
2021/05/04 03:06:03;;;;;;;3.78;1.50;;;8.70;99.90;;;8.72;100.00;99283.72;5071581;28;20029;-60
2021/05/04 03:08:30;;;;;;;6.63;1.90;;;8.80;99.90;;;8.76;100.00;99265.97;5071612;28;20433;-60
2021/05/04 03:10:57;;;;;;;2.17;1.67;;;8.80;99.90;;;8.72;100.00;99273.72;5054914;28;20086;-60
2021/05/04 03:13:29;;;;;;;6.78;2.83;;;8.80;99.90;;;8.76;100.00;99262.41;5071662;28;20040;-60
2021/05/04 03:15:55;;;;;;;6.72;2.85;;;8.90;99.90;;;8.74;100.00;99244.47;5071445;28;20094;-60
2021/05/04 03:18:21;;;;;;;6.10;2.33;;;8.90;99.90;;;8.73;100.00;99250.97;5054687;28;20371;-59
2021/05/04 03:20:52;;;;;;;5.55;1.73;;;8.80;99.90;;;8.85;100.00;99248.31;5054947;28;20044;-60
2021/05/04 03:23:20;;;;;;;7.07;2.58;;;8.90;99.90;;;8.81;100.00;99238.13;5071371;28;20043;-60
2021/05/04 03:25:47;;;;;;;4.35;2.40;;;8.90;99.90;;;8.80;100.00;99250.91;5055083;28;20095;-59
2021/05/04 03:28:14;;;;;;;11.85;2.50;;;8.90;99.90;;;8.82;100.00;99243.34;5071369;28;20099;-59
2021/05/04 03:30:41;;;;;;;7.88;2.67;;;8.90;99.90;;;8.93;100.00;99239.00;5071244;28;20044;-59
2021/05/04 03:33:07;;;;;;;3.70;2.28;;;8.90;99.90;;;8.85;100.00;99237.47;5054718;28;20036;-60
2021/05/04 03:35:34;;;;;;;7.40;2.70;;;8.90;99.90;;;8.84;100.00;99233.09;5072537;28;20033;-59
2021/05/04 03:38:01;;;;;;;10.00;1.83;;;8.90;99.90;;;8.84;100.00;99233.09;5072538;28;20028;-59
2021/05/04 03:40:27;;;;;;;7.57;3.20;;;8.90;99.90;;;8.83;100.00;99241.44;5054573;28;20394;-59
2021/05/04 03:42:53;;;;;;;9.40;1.95;;;8.90;99.90;;;8.90;100.00;99239.50;5073925;28;20045;-60
2021/05/04 03:45:19;;;;;;;19.10;3.42;;;8.90;99.90;;;8.85;100.00;99228.50;5075023;28;20059;-60
2021/05/04 03:47:46;;;;;;;25.63;4.97;;;8.90;99.90;;;8.88;100.00;99231.56;5074900;28;20071;-60
2021/05/04 03:50:16;;;;;;;28.88;7.55;;;8.90;99.90;;;9.01;100.00;99225.97;5074803;28;20025;-59
2021/05/04 03:52:42;;;;;;;19.02;3.97;;;9.00;99.90;;;9.05;100.00;99226.31;5074752;28;20090;-62
2021/05/04 03:55:10;;;;;;;9.93;3.03;;;9.00;99.90;;;9.08;100.00;99215.84;5058230;28;20036;-59
2021/05/04 03:57:36;;;;;;;15.88;2.80;;;9.10;99.90;;;9.15;100.00;99212.19;5075830;28;20037;-59
2021/05/04 04:00:06;;;;;;;17.05;4.05;;;9.10;99.90;;;9.15;100.00;99210.31;5074694;28;20441;-60
2021/05/04 04:02:32;;;;;;;19.58;4.38;;;9.20;99.90;;;9.24;100.00;99208.94;5074539;28;20045;-59
2021/05/04 04:04:58;;;;;;;19.45;3.72;;;9.20;99.90;;;9.26;100.00;99197.81;5074920;28;20434;-61
2021/05/04 04:07:24;;;;;;;19.77;3.53;;;9.30;99.90;;;9.26;100.00;99200.53;5074413;28;20029;-59
2021/05/04 04:09:50;;;;;;;15.65;2.78;;;9.30;99.90;;;9.35;100.00;99204.59;5074514;28;20033;-59
2021/05/04 04:12:16;;;;;;;16.05;2.78;;;9.40;99.90;;;9.32;100.00;99208.59;5057843;28;20552;-60
2021/05/04 04:14:42;;;;;;;17.00;3.78;;;9.40;99.90;;;9.32;100.00;99200.44;5074460;28;20040;-60
2021/05/04 04:17:08;;;;;;;16.38;4.28;;;9.50;99.90;;;9.40;100.00;99191.13;5074535;28;20032;-60
2021/05/04 04:19:33;;;;;;;14.15;2.88;;;9.40;99.90;;;9.48;100.00;99176.41;5057592;28;20147;-59
2021/05/04 04:21:59;;;;;;;10.45;3.60;;;9.50;99.90;;;9.42;100.00;99195.28;5075574;28;20086;-59
2021/05/04 04:24:25;;;;;;;24.35;3.97;;;9.50;99.90;;;9.52;100.00;99178.41;5074302;28;20052;-59
2021/05/04 04:26:51;;;;;;;19.17;3.70;;;9.60;99.90;;;9.55;100.00;99183.38;5075769;28;20467;-61
2021/05/04 04:29:16;;;;;;;25.98;4.78;;;9.60;99.90;;;9.59;100.00;99179.13;5074212;28;20036;-60
2021/05/04 04:31:42;;;;;;;31.98;7.22;;;9.60;99.90;;;9.60;100.00;99183.47;5075688;28;20029;-61
2021/05/04 04:34:09;;;;;;;23.10;4.43;;;9.60;99.90;;;9.60;100.00;99180.75;5040808;28;20476;-62
2021/05/04 04:36:35;;;;;;;25.60;5.03;;;9.70;99.90;;;9.64;100.00;99176.53;5040981;28;20044;-61
2021/05/04 04:39:02;;;;;;;35.10;5.85;;;9.70;99.90;;;9.68;100.00;99188.59;5073936;28;20029;-62
2021/05/04 04:41:28;;;;;;;36.13;6.18;;;9.70;99.90;;;9.77;100.00;99179.00;5074401;28;20032;-61
2021/05/04 04:43:54;;;;;;;29.02;6.20;;;9.70;99.90;;;9.78;100.00;99161.66;5075522;28;20040;-61
2021/05/04 04:46:21;;;;;;;34.15;5.65;;;9.80;99.90;;;9.80;100.00;99170.41;5074065;28;20513;-60
2021/05/04 04:48:46;;;;;;;34.75;7.50;;;9.90;99.90;;;9.79;100.00;99163.31;5073888;28;20039;-59
2021/05/04 04:51:12;;;;;;;24.70;6.72;;;9.90;99.90;;;9.73;100.00;99175.09;5074653;28;20388;-60
2021/05/04 04:53:38;;;;;;;23.05;6.13;;;9.90;99.90;;;9.74;100.00;99174.03;5074817;28;20098;-61
2021/05/04 04:56:04;;;;;;;41.05;5.78;;;9.90;99.90;;;9.79;100.00;99170.63;5074862;28;20079;-60
2021/05/04 04:58:30;;;;;;;36.60;6.07;;;9.90;99.90;;;9.79;100.00;99160.59;5057049;28;20058;-59
2021/05/04 05:00:55;;;;;;;28.63;6.22;;;9.90;99.90;;;9.89;100.00;99167.31;5057244;28;20505;-61
2021/05/04 05:03:24;;;;;;;27.02;4.43;;;9.90;99.90;;;9.86;99.81;99162.34;5073528;28;20060;-60
2021/05/04 05:05:51;;;;;;;26.05;5.00;;;10.00;99.90;;;9.95;99.15;99164.47;5057776;28;20127;-59
2021/05/04 05:08:17;;;;;;;33.60;6.88;;;10.00;99.90;;;9.94;98.54;99170.13;5073825;28;20029;-61
2021/05/04 05:10:43;;;;;;;29.77;5.43;;;10.00;99.90;;;10.00;98.22;99163.75;5073680;28;20119;-62
2021/05/04 05:13:08;;;;;;;30.35;5.20;;;10.10;99.90;;;9.99;97.62;99162.94;5057101;28;20041;-63
2021/05/04 05:15:39;;;;;;;30.60;7.03;;;10.10;99.90;;;10.09;96.65;99152.28;5073458;28;20068;-59
2021/05/04 05:18:06;;;;;;;32.08;4.75;;;10.10;99.90;;;10.11;95.83;99171.06;5073380;28;20111;-60
2021/05/04 05:20:34;;;;;;;29.38;5.20;;;10.10;99.90;;;10.07;95.70;99148.13;5074496;28;20111;-60
2021/05/04 05:23:00;;;;;;;31.98;6.00;;;10.10;99.90;;;10.19;94.29;99168.00;5073369;28;20029;-60
2021/05/04 05:25:27;;;;;;;37.95;6.13;;;10.20;99.90;;;10.32;93.90;99156.88;5073187;28;20028;-60
2021/05/04 05:27:53;;;;;;;23.55;5.18;;;10.20;99.90;;;10.35;93.92;99156.41;5073239;28;20115;-64
2021/05/04 05:30:19;;;;;;;30.33;5.05;;;10.30;99.90;;;10.45;93.07;99156.59;5073120;28;20029;-59
2021/05/04 05:32:45;;;;;;;29.83;6.30;;;10.40;99.90;;;10.44;93.02;99163.13;5074549;28;20037;-60
2021/05/04 05:35:11;;;;;;;23.15;4.30;;;10.50;99.90;;;10.52;92.78;99165.44;5074394;28;20395;-60
2021/05/04 05:37:37;;;;;;;25.00;3.97;;;10.50;99.90;;;10.64;91.46;99157.25;5056308;28;20032;-59
2021/05/04 05:40:04;;;;;;;22.70;4.53;;;10.60;99.90;;;10.60;91.67;99158.81;5072926;28;20093;-59
2021/05/04 05:42:30;;;;;;;21.50;5.80;;;10.60;99.90;;;10.46;92.22;99163.72;5056978;28;20135;-61
2021/05/04 05:44:55;;;;;;;24.42;5.28;;;10.60;99.90;;;10.51;92.45;99155.63;5074152;28;20064;-63
2021/05/04 05:47:21;;;;;;;21.67;5.13;;;10.60;99.90;;;10.60;92.14;99171.59;5073991;28;20041;-59
2021/05/04 05:49:47;;;;;;;24.73;4.50;;;10.60;99.90;;;10.64;92.17;99153.69;5074229;28;20503;-59
2021/05/04 05:52:13;;;;;;;20.23;4.47;;;10.80;99.90;;;10.70;92.40;99158.19;5072837;28;20056;-60
2021/05/04 05:54:39;;;;;;;14.63;3.90;;;10.70;99.90;;;10.66;92.49;99162.44;5072911;28;20045;-60
2021/05/04 05:57:05;;;;;;;27.00;4.65;;;10.70;99.90;;;10.58;93.17;99166.38;5056151;28;20040;-61
2021/05/04 05:59:32;;;;;;;23.73;4.97;;;10.70;99.90;;;10.55;93.33;99175.84;5039256;28;20040;-59
2021/05/04 06:01:57;;;;;;;13.57;4.70;;;10.70;99.90;;;10.72;93.11;99172.38;5072206;28;20060;-61
2021/05/04 06:04:23;;;;;;;22.25;4.80;;;10.80;99.90;;;10.76;92.97;99168.09;5072185;28;20033;-59
2021/05/04 06:06:49;;;;;;;16.90;4.35;;;10.80;99.90;;;10.93;92.69;99168.16;5055482;28;20039;-60
2021/05/04 06:09:15;;;;;;;19.25;3.92;;;10.90;99.90;;;10.99;91.99;99172.59;5039186;28;20044;-60
2021/05/04 06:11:41;;;;;;;19.65;3.58;;;11.00;99.90;;;10.97;91.79;99186.47;5072329;28;20033;-59
2021/05/04 06:14:07;;;;;;;13.52;3.63;;;11.00;99.90;;;11.11;91.44;99174.19;5055438;28;20039;-59
2021/05/04 06:16:33;;;;;;;24.35;6.25;;;11.10;99.90;;;11.34;90.86;99169.69;5055412;28;20033;-60
2021/05/04 06:18:58;;;;;;;19.98;5.03;;;11.20;99.90;;;11.93;88.03;99166.31;5055892;28;20486;-60
2021/05/04 06:21:24;;;;;;;24.65;5.30;;;11.60;99.90;;;12.50;86.07;99168.72;5055607;28;20055;-59
2021/05/04 06:23:51;;;;;;;16.20;3.92;;;12.10;99.90;;;12.55;85.01;99167.94;5073522;28;20376;-61
2021/05/04 06:26:18;;;;;;;25.17;5.32;;;12.30;99.90;;;12.69;84.89;99174.66;5039229;28;20379;-60
2021/05/04 06:28:48;;;;;;;26.05;5.03;;;12.50;99.90;;;12.82;87.40;99177.00;5055539;28;20036;-60
2021/05/04 06:31:16;;;;;;;23.92;5.78;;;12.70;99.90;;;12.27;89.04;99201.72;5055809;28;20463;-61
2021/05/04 06:33:42;;;;;;;35.17;6.57;;;12.50;99.90;;;11.72;90.79;99182.59;5055453;28;20034;-60
2021/05/04 06:36:09;;;;;;;26.42;6.05;;;12.10;99.90;;;11.38;92.59;99198.09;5055458;28;20078;-60
2021/05/04 06:38:36;;;;;;;28.38;5.03;;;11.70;99.90;;;11.28;93.46;99183.25;5072007;28;20063;-60
2021/05/04 06:41:03;;;;;;;36.80;4.90;;;11.50;99.90;;;11.32;93.59;99174.56;5072381;28;20025;-60
2021/05/04 06:43:29;;;;;;;28.15;6.35;;;11.40;99.90;;;11.57;92.49;99178.53;5055562;28;20036;-62
2021/05/04 06:45:55;;;;;;;19.27;4.68;;;11.60;99.90;;;11.67;91.45;99169.69;5055545;28;20040;-59
2021/05/04 06:48:20;;;;;;;22.38;5.03;;;11.70;99.90;;;11.75;89.59;99182.94;5073657;28;20029;-60
2021/05/04 06:50:46;;;;;;;32.38;5.40;;;11.80;99.90;;;11.99;88.24;99173.47;5055026;28;20037;-59
2021/05/04 06:53:12;;;;;;;20.58;3.92;;;11.90;99.90;;;12.52;86.87;99182.13;5071869;28;20086;-59
2021/05/04 06:55:38;;;;;;;22.33;4.95;;;12.20;99.90;;;12.52;85.72;99176.66;5055081;28;20043;-60
2021/05/04 06:58:04;;;;;;;36.05;7.20;;;12.30;99.90;;;12.43;85.77;99181.72;5038306;28;20035;-60
2021/05/04 07:00:30;;;;;;;27.55;5.03;;;12.30;99.90;;;12.16;86.50;99181.66;5071882;28;20039;-60
2021/05/04 07:02:55;;;;;;;23.90;4.65;;;12.20;99.90;;;12.53;86.41;99179.13;5054830;28;20481;-61
2021/05/04 07:05:21;;;;;;;24.60;4.45;;;12.30;99.90;;;13.56;80.86;99176.38;5055295;28;20037;-61
2021/05/04 07:07:47;;;;;;;26.42;4.07;;;12.90;99.90;;;13.61;79.85;99184.66;5071502;28;20036;-62
2021/05/04 07:10:14;;;;;;;12.73;3.45;;;13.40;99.90;;;13.64;79.63;99184.13;5071538;28;20123;-61
2021/05/04 07:12:41;;;;;;;15.80;3.92;;;13.60;99.90;;;13.19;80.78;99188.09;5071618;28;20074;-61
2021/05/04 07:15:08;;;;;;;12.32;2.78;;;13.50;99.90;;;12.72;84.25;99215.94;5071650;28;20028;-60
2021/05/04 07:17:34;;;;;;;19.63;3.38;;;13.00;99.90;;;11.93;86.27;99231.75;5074862;28;20036;-61
2021/05/04 07:19:59;;;;;;;7.03;1.63;;;12.50;99.90;;;11.07;87.46;99197.53;5058871;28;20036;-60
2021/05/04 07:22:28;;;;;;;3.88;0.90;;;11.80;99.90;;;10.52;87.07;99183.66;5042210;28;20116;-60
2021/05/04 07:24:54;;;;;;;5.32;1.17;;;11.00;99.90;;;10.19;89.46;99195.19;5076671;28;20036;-59
2021/05/04 07:27:21;;;;;;;14.77;2.50;;;10.50;99.90;;;9.83;92.90;99175.34;5058590;28;20035;-60
2021/05/04 07:29:48;;;;;;;10.15;2.63;;;10.10;99.90;;;9.76;95.42;99185.50;5059009;28;20032;-61
2021/05/04 07:32:17;;;;;;;47.10;5.20;;;10.00;99.90;;;9.60;98.66;99169.06;5058645;28;20032;-61
2021/05/04 07:34:46;;;;;;;27.25;4.05;;;9.80;99.90;;;9.51;100.00;99171.31;5059206;28;20032;-61
2021/05/04 07:37:13;;;;;;;16.83;3.67;;;9.70;99.90;;;9.78;100.00;99168.97;5058503;28;20029;-62
2021/05/04 07:39:40;;;;;;;22.17;3.47;;;9.70;99.90;;;10.88;100.00;99180.59;5075284;28;20040;-61
2021/05/04 07:42:07;;;;;;;17.70;3.92;;;10.10;99.90;;;12.25;93.00;99190.22;5075106;28;20059;-59
2021/05/04 07:44:33;;;;;;;18.42;3.85;;;11.10;99.90;;;13.47;89.61;99172.50;5075303;28;20036;-61
2021/05/04 07:47:00;;;;;;;19.65;4.25;;;12.10;99.90;;;15.22;81.25;99178.38;5058242;28;20055;-61
2021/05/04 07:49:42;;;;;;;12.93;3.40;;;13.50;99.90;;;15.52;76.67;99188.53;5076165;28;20036;-66
2021/05/04 07:52:08;;;;;;;29.38;4.00;;;14.40;99.90;;;14.98;76.16;99191.75;5076411;28;20036;-60
2021/05/04 07:54:34;;;;;;;16.40;3.88;;;14.60;99.90;;;14.39;77.58;99177.50;5075181;28;20524;-62
2021/05/04 07:57:00;;;;;;;11.30;3.28;;;14.40;99.90;;;14.20;78.25;99176.31;5075486;28;20048;-60
2021/05/04 07:59:25;;;;;;;21.98;4.03;;;14.30;99.90;;;13.57;80.04;99183.50;5074814;28;20086;-60
2021/05/04 08:01:51;;;;;;;10.75;2.47;;;14.00;99.90;;;13.29;80.95;99192.84;5074418;28;20064;-61
2021/05/04 08:04:17;;;;;;;15.27;3.40;;;13.60;99.90;;;12.85;82.44;99192.06;5058115;28;20121;-61
2021/05/04 08:06:43;;;;;;;22.13;5.32;;;13.20;99.90;;;12.51;83.46;99181.28;5074678;28;20041;-60
2021/05/04 08:09:09;;;;;;;16.23;3.25;;;12.80;99.90;;;12.29;84.20;99183.19;5041345;28;20060;-61
2021/05/04 08:11:35;;;;;;;13.25;3.30;;;12.60;99.90;;;12.06;84.87;99183.41;5058032;28;20047;-63
2021/05/04 08:14:04;;;;;;;12.63;3.05;;;12.40;99.90;;;11.83;85.86;99190.72;5057675;28;20123;-62
2021/05/04 08:16:31;;;;;;;15.98;3.05;;;12.10;99.90;;;11.80;86.13;99196.66;5074560;28;20123;-59
2021/05/04 08:18:58;;;;;;;23.95;5.10;;;12.00;99.90;;;11.71;85.89;99186.38;5074410;28;20031;-60
2021/05/04 08:21:26;;;;;;;16.08;3.90;;;11.90;99.90;;;11.76;86.42;99181.84;5075668;28;20029;-64
2021/05/04 08:23:52;;;;;;;16.60;3.00;;;12.00;99.90;;;11.86;85.86;99195.63;5057881;28;20025;-67
2021/05/04 08:26:18;;;;;;;19.17;3.65;;;11.90;99.90;;;11.73;86.52;99184.25;5075357;28;20482;-66
2021/05/04 08:28:45;;;;;;;17.95;3.75;;;11.90;99.90;;;11.83;86.38;99181.69;5090280;28;20158;-64
2021/05/04 08:31:11;;;;;;;18.45;3.85;;;11.90;99.90;;;11.94;85.46;99176.16;5074269;28;20407;-66
2021/05/04 08:33:37;;;;;;;13.23;2.40;;;12.00;99.90;;;11.86;84.68;99170.28;5057447;28;20147;-66
2021/05/04 08:36:03;;;;;;;12.02;2.58;;;12.00;99.90;;;11.86;84.90;99183.91;5057396;28;20037;-66
2021/05/04 08:38:28;;;;;;;8.00;2.15;;;11.90;99.90;;;11.91;82.95;99165.75;5074298;28;20037;-64
2021/05/04 08:40:54;;;;;;;12.32;1.73;;;12.00;99.90;;;11.95;82.70;99164.16;5040754;28;20051;-65
2021/05/04 08:43:25;;;;;;;10.93;2.22;;;12.00;99.90;;;12.10;82.47;99177.19;5057446;28;20024;-65
2021/05/04 08:46:01;;;;;;;10.65;1.58;;;12.10;99.90;;;11.65;85.08;99190.91;5057473;28;20442;-68
2021/05/04 08:48:29;;;;;;;12.10;1.55;;;11.90;99.90;;;11.29;88.45;99184.03;5057231;28;20029;-63
2021/05/04 08:50:58;;;;;;;8.07;1.30;;;11.60;99.90;;;10.95;90.50;99176.91;5073748;28;20037;-63
2021/05/04 08:53:25;;;;;;;8.52;1.45;;;11.30;99.90;;;10.60;92.10;99183.31;5075426;28;20037;-63
2021/05/04 08:55:51;;;;;;;5.57;1.33;;;11.00;99.90;;;10.35;94.31;99194.47;5073933;28;20063;-67
2021/05/04 08:58:16;;;;;;;10.48;1.75;;;10.70;99.90;;;9.98;97.20;99187.63;5073792;28;20486;-62
2021/05/04 09:00:42;;;;;;;6.43;1.35;;;10.30;99.90;;;9.65;98.13;99172.75;5057309;28;20037;-70
2021/05/04 09:03:34;;;;;;;12.88;1.58;;;10.10;99.90;;;9.30;99.14;99185.44;5057676;28;20520;-67
2021/05/04 09:08:53;;;;;;;14.27;1.92;;;9.40;99.90;;;8.89;100.00;99199.84;5075011;28;20068;-67
2021/05/04 09:22:40;;;;;;;6.60;1.40;;;9.00;99.90;;;9.32;100.00;99229.50;5059115;28;20048;-63
2021/05/04 09:25:26;;;;;;;13.50;1.88;;;9.20;99.90;;;9.58;100.00;99226.38;5073296;28;20033;-64
2021/05/04 09:28:10;;;;;;;5.25;1.70;;;9.30;99.90;;;9.96;97.92;99239.50;5073209;28;20028;-64
2021/05/04 09:30:37;;;;;;;10.38;2.90;;;9.70;99.90;;;10.23;95.17;99222.75;5056587;28;20425;-65
2021/05/04 09:33:11;;;;;;;4.15;1.23;;;9.90;99.90;;;10.53;92.48;99245.16;5056906;28;20460;-66
2021/05/04 09:35:38;;;;;;;9.45;1.60;;;10.20;99.90;;;10.99;90.46;99249.66;5073532;28;20028;-70
2021/05/04 09:38:12;;;;;;;5.88;1.23;;;10.60;99.90;;;11.20;88.54;99251.72;5073272;28;20429;-65
2021/05/04 09:40:41;;;;;;;;;;;10.90;99.90;;;11.17;87.54;99263.06;5072472;28;20047;-64
2021/05/04 09:43:27;;;;;;;8.20;1.65;;;11.00;99.90;;;11.54;86.91;99254.50;5072869;28;19917;-66
2021/05/04 09:45:56;;;;;;;3.97;1.70;;;11.20;99.90;;;12.40;84.12;99266.00;5056701;28;20039;-64
2021/05/04 09:48:24;;;;;;;13.48;2.60;;;11.70;99.90;;;14.02;80.06;99257.72;5072759;28;20085;-65
2021/05/04 09:51:02;;;;;;;7.18;2.22;;;12.70;99.90;;;14.99;75.05;99255.59;5072720;28;20074;-66
2021/05/04 09:53:49;;;;;;;4.43;1.50;;;13.70;99.90;;;14.32;72.92;99261.78;5056198;28;20501;-69
2021/05/04 09:56:31;;;;;;;9.52;1.42;;;14.00;99.90;;;13.47;74.98;99271.72;5072485;28;20066;-65
2021/05/04 09:58:57;;;;;;;8.10;1.40;;;13.70;99.90;;;12.81;76.12;99275.56;5072563;28;20482;-67
2021/05/04 10:01:22;;;;;;;9.52;1.92;;;13.20;99.90;;;12.61;77.60;99268.78;5055702;28;20044;-66
2021/05/04 10:03:50;;;;;;;5.63;1.20;;;12.90;99.90;;;12.47;76.30;99283.84;5072378;28;20063;-66
2021/05/04 10:06:18;;;;;;;10.60;1.85;;;12.60;99.90;;;12.36;76.96;99280.16;5072399;28;20054;-66
2021/05/04 10:08:46;;;;;;;4.28;1.95;;;12.40;99.90;;;11.84;77.82;99279.59;5072236;28;20048;-67
2021/05/04 10:11:17;;;;;;;8.52;1.48;;;12.10;99.90;;;11.33;80.68;99287.91;5072285;28;20119;-66
2021/05/04 10:13:43;;;;;;;7.25;1.70;;;11.70;99.90;;;11.05;81.38;99289.56;5072252;28;20433;-67
2021/05/04 10:16:11;;;;;;;7.75;2.25;;;11.30;99.90;;;10.87;81.51;99297.88;5072128;28;20040;-67
2021/05/04 10:18:37;;;;;;;8.77;1.73;;;11.10;99.90;;;10.71;81.43;99290.47;5055674;28;20171;-67
2021/05/04 10:21:07;;;;;;;6.70;2.40;;;11.00;99.90;;;10.68;81.78;99296.38;5055589;28;20064;-66
2021/05/04 10:23:36;;;;;;;11.65;1.55;;;10.90;99.90;;;10.75;81.62;99297.06;5072422;28;20062;-67
2021/05/04 10:26:15;;;;;;;13.55;2.15;;;10.80;99.90;;;10.71;81.79;99302.19;5072083;28;20041;-65
2021/05/04 10:28:48;;;;;;;9.10;1.70;;;10.80;99.90;;;10.82;80.82;99304.06;5056569;28;20036;-66
2021/05/04 10:31:16;;;;;;;7.78;2.53;;;10.90;99.90;;;10.91;80.60;99301.78;5072635;28;20020;-68
2021/05/04 10:33:43;;;;;;;8.15;1.85;;;10.90;99.90;;;11.13;80.22;99310.94;5073414;28;20032;-68